createdAt,value
2024-02-23T00:00:37.209Z,0.68
2024-02-23T00:03:03.957Z,0.60
2024-02-23T00:05:30.623Z,0.80
2024-02-23T00:07:57.238Z,0.60
2024-02-23T00:10:23.908Z,0.50
2024-02-23T00:12:50.523Z,0.70
2024-02-23T00:15:16.991Z,1.13
2024-02-23T00:17:43.632Z,0.75
2024-02-23T00:20:14.932Z,0.82
2024-02-23T00:22:41.536Z,1.02
2024-02-23T00:25:08.831Z,0.88
2024-02-23T00:27:35.472Z,0.82
2024-02-23T00:30:02.058Z,0.80
2024-02-23T00:32:28.629Z,1.10
2024-02-23T00:34:55.207Z,0.98
2024-02-23T00:37:21.799Z,0.93
2024-02-23T00:39:48.301Z,0.80
2024-02-23T00:42:14.893Z,1.10
2024-02-23T00:44:41.363Z,0.98
2024-02-23T00:47:07.929Z,1.00
2024-02-23T00:49:34.465Z,1.00
2024-02-23T00:52:01.026Z,1.08
2024-02-23T00:54:27.624Z,1.10
2024-02-23T00:56:57.345Z,1.02
2024-02-23T00:59:24.229Z,1.02
2024-02-23T01:01:50.923Z,1.30
2024-02-23T01:04:17.429Z,1.05
2024-02-23T01:06:44.079Z,1.10
2024-02-23T01:09:10.833Z,0.85
2024-02-23T01:11:37.408Z,1.00
2024-02-23T01:14:04.085Z,0.93
2024-02-23T01:16:30.716Z,0.90
2024-02-23T01:18:57.723Z,0.75
2024-02-23T01:21:24.226Z,1.00
2024-02-23T01:23:50.745Z,0.60
2024-02-23T01:26:17.328Z,0.40
2024-02-23T01:28:44.242Z,0.65
2024-02-23T01:31:14.627Z,0.80
2024-02-23T01:33:41.310Z,0.73
2024-02-23T01:36:08.903Z,0.80
2024-02-23T01:38:35.737Z,0.80
2024-02-23T01:41:03.112Z,0.93
2024-02-23T01:43:29.798Z,0.80
2024-02-23T01:45:56.369Z,0.98
2024-02-23T01:48:23.162Z,0.82
2024-02-23T01:50:49.904Z,1.00
2024-02-23T01:53:17.883Z,0.90
2024-02-23T01:55:47.276Z,0.88
2024-02-23T01:58:14.171Z,1.30
2024-02-23T02:00:40.662Z,0.95
2024-02-23T02:03:10.736Z,0.90
2024-02-23T02:05:39.628Z,1.13
2024-02-23T02:08:06.746Z,1.02
2024-02-23T02:10:33.420Z,1.00
2024-02-23T02:13:06.614Z,1.02
2024-02-23T02:15:33.299Z,1.20
2024-02-23T02:17:59.895Z,1.08
2024-02-23T02:20:29.516Z,1.05
2024-02-23T02:22:56.224Z,1.20
2024-02-23T02:25:22.776Z,1.05
2024-02-23T02:27:49.347Z,1.15
2024-02-23T02:30:15.931Z,1.02
2024-02-23T02:32:42.682Z,1.10
2024-02-23T02:35:12.317Z,1.00
2024-02-23T02:37:39.182Z,0.80
2024-02-23T02:40:06.561Z,0.85
2024-02-23T02:42:34.347Z,1.02
2024-02-23T02:45:00.823Z,1.15
2024-02-23T02:47:28.017Z,1.20
2024-02-23T02:49:54.730Z,0.98
2024-02-23T02:52:24.082Z,1.02
2024-02-23T02:54:51.052Z,1.17
2024-02-23T02:57:17.592Z,1.20
2024-02-23T02:59:45.598Z,1.10
2024-02-23T03:02:12.268Z,1.02
2024-02-23T03:04:38.801Z,1.25
2024-02-23T03:07:05.946Z,1.50
2024-02-23T03:09:32.475Z,1.67
2024-02-23T03:11:59.011Z,1.10
2024-02-23T03:14:26.823Z,1.10
2024-02-23T03:16:53.551Z,1.10
2024-02-23T03:19:23.648Z,1.15
2024-02-23T03:21:50.898Z,1.50
2024-02-23T03:24:17.505Z,0.90
2024-02-23T03:26:44.251Z,1.20
2024-02-23T03:29:11.466Z,1.35
2024-02-23T03:31:38.460Z,1.15
2024-02-23T03:34:04.969Z,1.00
2024-02-23T03:36:31.539Z,1.00
2024-02-23T03:38:58.141Z,1.02
2024-02-23T03:41:24.827Z,1.20
2024-02-23T03:43:51.455Z,1.20
2024-02-23T03:46:18.772Z,0.98
2024-02-23T03:48:45.830Z,1.30
2024-02-23T03:51:13.465Z,1.10
2024-02-23T03:53:40.062Z,1.10
2024-02-23T03:56:06.914Z,1.00
2024-02-23T03:58:33.528Z,1.10
2024-02-23T04:01:00.046Z,1.08
2024-02-23T04:03:26.538Z,1.00
2024-02-23T04:05:53.073Z,1.30
2024-02-23T04:08:19.584Z,1.20
2024-02-23T04:10:46.413Z,1.00
2024-02-23T04:13:15.014Z,1.30
2024-02-23T04:18:08.108Z,1.25
2024-02-23T04:20:35.074Z,1.30
2024-02-23T04:23:01.824Z,1.10
2024-02-23T04:25:28.656Z,1.25
2024-02-23T04:27:55.248Z,1.35
2024-02-23T04:30:21.854Z,1.52
2024-02-23T04:32:48.766Z,1.33
2024-02-23T04:35:15.624Z,1.00
2024-02-23T04:37:46.254Z,1.20
2024-02-23T04:40:13.089Z,1.23
2024-02-23T04:42:40.018Z,1.23
2024-02-23T04:45:07.159Z,1.23
2024-02-23T04:47:33.821Z,1.00
2024-02-23T04:50:00.598Z,1.30
2024-02-23T04:52:27.187Z,1.27
2024-02-23T04:54:53.687Z,1.10
2024-02-23T04:57:20.134Z,1.50
2024-02-23T04:59:46.626Z,1.42
2024-02-23T05:02:14.541Z,1.10
2024-02-23T05:04:41.282Z,1.23
2024-02-23T05:07:07.825Z,1.13
2024-02-23T05:09:36.148Z,1.40
2024-02-23T05:12:02.798Z,1.33
2024-02-23T05:14:29.458Z,1.20
2024-02-23T05:16:56.081Z,1.30
2024-02-23T05:19:22.669Z,1.52
2024-02-23T05:21:49.219Z,1.40
2024-02-23T05:24:18.663Z,1.33
2024-02-23T05:26:45.533Z,1.48
2024-02-23T05:29:14.059Z,1.40
2024-02-23T05:31:49.421Z,1.50
2024-02-23T05:34:16.502Z,1.40
2024-02-23T05:36:44.269Z,1.55
2024-02-23T05:39:10.914Z,1.40
2024-02-23T05:41:38.060Z,1.60
2024-02-23T05:44:08.024Z,1.55
2024-02-23T05:46:36.059Z,1.55
2024-02-23T05:49:03.660Z,1.80
2024-02-23T05:51:30.460Z,1.80
2024-02-23T05:53:57.645Z,1.80
2024-02-23T05:56:27.628Z,2.00
2024-02-23T05:58:54.360Z,2.00
2024-02-23T06:01:21.080Z,1.80
2024-02-23T06:03:47.894Z,1.90
2024-02-23T06:06:15.368Z,2.00
2024-02-23T06:08:42.169Z,1.80
2024-02-23T06:11:11.441Z,1.63
2024-02-23T06:13:38.239Z,1.50
2024-02-23T06:16:06.490Z,1.60
2024-02-23T06:18:33.037Z,1.80
2024-02-23T06:20:59.631Z,1.50
2024-02-23T06:23:26.185Z,1.50
2024-02-23T06:25:53.112Z,1.60
2024-02-23T06:28:19.659Z,1.35
2024-02-23T06:30:46.173Z,1.30
2024-02-23T06:33:12.842Z,1.38
2024-02-23T06:35:39.503Z,1.38
2024-02-23T06:38:06.975Z,1.40
2024-02-23T06:40:45.356Z,1.45
2024-02-23T06:43:15.320Z,1.13
2024-02-23T06:45:41.837Z,1.27
2024-02-23T06:48:08.985Z,1.50
2024-02-23T06:50:36.765Z,1.20
2024-02-23T06:53:03.439Z,1.23
2024-02-23T06:55:30.071Z,1.23
2024-02-23T06:57:56.913Z,1.17
2024-02-23T07:00:23.391Z,1.33
2024-02-23T07:02:49.898Z,1.20
2024-02-23T07:05:16.544Z,1.38
2024-02-23T07:07:43.598Z,1.13
2024-02-23T07:10:11.652Z,1.30
2024-02-23T07:12:38.174Z,1.60
2024-02-23T07:15:05.055Z,1.23
2024-02-23T07:17:31.668Z,1.50
2024-02-23T07:20:06.982Z,1.63
2024-02-23T07:22:34.008Z,1.20
2024-02-23T07:25:02.619Z,1.48
2024-02-23T07:27:30.233Z,1.30
2024-02-23T07:29:56.794Z,1.40
2024-02-23T07:32:23.373Z,1.42
2024-02-23T07:34:50.865Z,1.55
2024-02-23T07:37:17.627Z,1.40
2024-02-23T07:39:44.240Z,1.67
2024-02-23T07:42:12.029Z,1.33
2024-02-23T07:44:38.827Z,1.60
2024-02-23T07:47:05.854Z,1.52
2024-02-23T07:49:32.571Z,1.60
2024-02-23T07:51:59.293Z,1.90
2024-02-23T07:54:26.052Z,1.30
2024-02-23T07:56:52.607Z,1.55
2024-02-23T07:59:21.713Z,1.60
2024-02-23T08:01:48.388Z,1.60
2024-02-23T08:04:14.981Z,1.33
2024-02-23T08:06:42.079Z,1.40
2024-02-23T08:09:09.180Z,1.60
2024-02-23T08:11:37.076Z,1.40
2024-02-23T08:14:04.294Z,1.30
2024-02-23T08:16:30.824Z,1.50
2024-02-23T08:18:57.314Z,1.63
2024-02-23T08:21:23.984Z,1.30
2024-02-23T08:23:50.534Z,1.15
2024-02-23T08:26:17.209Z,1.10
2024-02-23T08:28:43.785Z,1.20
2024-02-23T08:31:10.291Z,1.10
2024-02-23T08:33:37.163Z,1.20
2024-02-23T08:36:06.956Z,1.35
2024-02-23T08:38:34.033Z,1.30
2024-02-23T08:41:00.663Z,1.30
2024-02-23T08:43:27.370Z,1.02
2024-02-23T08:45:53.943Z,1.23
2024-02-23T08:48:20.528Z,1.20
2024-02-23T08:50:47.306Z,1.30
2024-02-23T08:53:13.912Z,1.77
2024-02-23T08:55:40.443Z,1.30
2024-02-23T08:58:07.393Z,1.15
2024-02-23T09:00:34.145Z,1.30
2024-02-23T09:03:01.035Z,1.20
2024-02-23T09:05:27.779Z,1.10
2024-02-23T09:07:54.702Z,1.60
2024-02-23T09:10:21.536Z,1.10
2024-02-23T09:12:48.305Z,1.02
2024-02-23T09:15:14.925Z,1.35
2024-02-23T09:17:42.957Z,1.10
2024-02-23T09:20:10.259Z,1.10
2024-02-23T09:22:38.177Z,1.20
2024-02-23T09:25:06.565Z,1.15
2024-02-23T09:27:33.336Z,0.93
2024-02-23T09:30:00.075Z,1.30
2024-02-23T09:32:26.684Z,1.25
2024-02-23T09:34:53.243Z,1.10
2024-02-23T09:37:19.848Z,1.20
2024-02-23T09:39:46.329Z,1.10
2024-02-23T09:42:13.080Z,1.10
2024-02-23T09:44:40.841Z,1.20
2024-02-23T09:47:12.396Z,1.02
2024-02-23T09:49:41.757Z,1.50
2024-02-23T09:52:10.564Z,1.30
2024-02-23T09:54:41.017Z,1.33
2024-02-23T09:57:11.473Z,1.05
2024-02-23T09:59:39.165Z,1.30
2024-02-23T10:02:13.371Z,0.98
2024-02-23T10:04:40.665Z,1.10
2024-02-23T10:07:07.665Z,1.10
2024-02-23T10:09:34.292Z,1.17
2024-02-23T10:12:05.120Z,1.20
2024-02-23T10:14:31.896Z,1.08
2024-02-23T10:16:58.598Z,1.13
2024-02-23T10:19:29.955Z,1.30
2024-02-23T10:21:57.380Z,1.20
2024-02-23T10:24:25.226Z,1.20
2024-02-23T10:26:52.717Z,1.05
2024-02-23T10:29:21.173Z,1.58
2024-02-23T10:31:52.380Z,1.15
2024-02-23T10:34:20.954Z,0.90
2024-02-23T10:39:22.522Z,1.40
2024-02-23T10:41:58.102Z,1.17
2024-02-23T10:44:25.621Z,1.10
2024-02-23T10:46:53.820Z,0.98
2024-02-23T10:49:23.092Z,1.38
2024-02-23T10:51:53.051Z,1.30
2024-02-23T10:54:23.786Z,1.20
2024-02-23T10:56:52.456Z,1.40
2024-02-23T10:59:20.110Z,1.35
2024-02-23T11:01:52.133Z,1.48
2024-02-23T11:04:19.108Z,1.40
2024-02-23T11:06:52.755Z,1.73
2024-02-23T11:09:22.781Z,1.20
2024-02-23T11:12:00.242Z,1.50
2024-02-23T11:14:35.802Z,1.58
2024-02-23T11:17:03.103Z,1.35
2024-02-23T11:19:38.224Z,1.63
2024-02-23T11:22:07.683Z,1.60
2024-02-23T11:24:34.513Z,1.70
2024-02-23T11:27:09.091Z,1.42
2024-02-23T11:32:05.412Z,1.40
2024-02-23T11:34:32.362Z,1.50
2024-02-23T11:37:00.386Z,1.95
2024-02-23T11:39:28.365Z,1.70
2024-02-23T11:41:55.198Z,1.80
2024-02-23T11:44:21.832Z,1.60
2024-02-23T11:46:48.393Z,1.60
2024-02-23T11:49:16.972Z,1.42
2024-02-23T11:51:43.987Z,1.77
2024-02-23T11:54:10.589Z,1.60
2024-02-23T11:56:37.241Z,1.50
2024-02-23T11:59:04.843Z,1.52
2024-02-23T12:01:31.879Z,1.70
2024-02-23T12:03:58.438Z,1.67
2024-02-23T12:06:28.755Z,1.90
2024-02-23T12:08:55.530Z,1.70
2024-02-23T12:11:22.374Z,1.80
2024-02-23T12:13:49.028Z,1.73
2024-02-23T12:16:15.700Z,1.70
2024-02-23T12:18:42.230Z,1.67
2024-02-23T12:21:10.476Z,1.52
2024-02-23T12:26:14.476Z,1.42
2024-02-23T12:28:42.169Z,1.60
2024-02-23T12:31:08.815Z,1.42
2024-02-23T12:33:37.094Z,1.30
2024-02-23T12:38:31.743Z,1.20
2024-02-23T12:40:58.929Z,1.42
2024-02-23T12:43:25.795Z,1.75
2024-02-23T12:45:53.998Z,1.50
2024-02-23T12:48:21.562Z,1.48
2024-02-23T12:50:49.076Z,1.60
2024-02-23T12:53:37.092Z,1.63
2024-02-23T12:56:05.574Z,1.50
2024-02-23T12:58:38.656Z,1.40
2024-02-23T13:01:07.317Z,1.60
2024-02-23T13:03:35.536Z,1.35
2024-02-23T13:06:03.738Z,1.42
2024-02-23T13:08:31.243Z,1.45
2024-02-23T13:10:58.724Z,1.20
2024-02-23T13:13:25.838Z,1.30
2024-02-23T13:15:54.105Z,1.40
2024-02-23T13:18:21.155Z,1.20
2024-02-23T13:20:47.968Z,1.20
2024-02-23T13:23:17.047Z,1.20
2024-02-23T13:25:45.744Z,1.23
2024-02-23T13:30:39.824Z,1.25
2024-02-23T13:33:07.634Z,1.30
2024-02-23T13:35:34.962Z,1.30
2024-02-23T13:38:04.353Z,1.27
2024-02-23T13:40:32.609Z,1.60
2024-02-23T13:42:59.341Z,1.45
2024-02-23T13:45:26.387Z,1.27
2024-02-23T13:48:04.434Z,1.23
2024-02-23T13:50:31.812Z,1.35
2024-02-23T13:52:59.250Z,1.13
2024-02-23T13:55:25.954Z,1.33
2024-02-23T13:57:53.711Z,1.17
2024-02-23T14:00:21.490Z,1.50
2024-02-23T14:02:49.069Z,1.40
2024-02-23T14:05:16.929Z,1.40
2024-02-23T14:07:43.930Z,1.40
2024-02-23T14:10:10.869Z,1.50
2024-02-23T14:12:37.519Z,1.30
2024-02-23T14:15:06.086Z,1.40
2024-02-23T14:17:32.811Z,1.50
2024-02-23T14:19:59.791Z,1.58
2024-02-23T14:22:29.485Z,1.20
2024-02-23T14:24:56.146Z,1.42
2024-02-23T14:27:22.634Z,1.20
2024-02-23T14:29:49.229Z,1.40
2024-02-23T14:32:19.448Z,1.55
2024-02-23T14:34:46.991Z,1.25
2024-02-23T14:37:13.838Z,1.40
2024-02-23T14:39:40.545Z,1.35
2024-02-23T14:42:09.682Z,1.20
2024-02-23T14:44:37.234Z,1.10
2024-02-23T14:47:06.426Z,1.05
2024-02-23T14:49:34.144Z,1.10
2024-02-23T14:52:01.105Z,1.05
2024-02-23T14:54:27.714Z,1.20
2024-02-23T14:56:54.482Z,1.10
2024-02-23T14:59:21.750Z,1.20
2024-02-23T15:01:48.572Z,1.20
2024-02-23T15:04:16.920Z,1.25
2024-02-23T15:06:47.526Z,1.10
2024-02-23T15:09:14.153Z,2.40
2024-02-23T15:11:41.099Z,14.30
2024-02-23T15:14:08.005Z,1.20
2024-02-23T15:16:34.621Z,1.00
2024-02-23T15:19:01.180Z,1.00
2024-02-23T15:21:28.140Z,1.33
2024-02-23T15:23:55.180Z,1.20
2024-02-23T15:26:21.871Z,1.40
2024-02-23T15:28:48.505Z,1.30
2024-02-23T15:31:15.444Z,1.50
2024-02-23T15:33:42.166Z,1.42
2024-02-23T15:36:09.855Z,1.80
2024-02-23T15:38:37.770Z,1.80
2024-02-23T15:41:05.306Z,1.70
2024-02-23T15:43:32.115Z,1.60
2024-02-23T15:45:58.676Z,1.65
2024-02-23T15:48:26.678Z,1.80
2024-02-23T15:51:10.082Z,1.83
2024-02-23T15:53:40.135Z,1.70
2024-02-23T15:56:07.142Z,1.48
2024-02-23T15:58:33.810Z,1.80
2024-02-23T16:01:00.373Z,1.90
2024-02-23T16:03:27.015Z,1.75
2024-02-23T16:05:53.717Z,1.65
2024-02-23T16:08:49.478Z,1.70
2024-02-23T16:11:17.466Z,1.50
2024-02-23T16:13:44.327Z,1.33
2024-02-23T16:16:12.270Z,1.30
2024-02-23T16:18:39.493Z,1.40
2024-02-23T16:21:06.206Z,1.20
2024-02-23T16:23:32.767Z,1.20
2024-02-23T16:25:59.499Z,1.10
2024-02-23T16:28:26.079Z,1.52
2024-02-23T16:30:52.673Z,1.30
2024-02-23T16:33:19.321Z,1.10
2024-02-23T16:35:45.975Z,1.30
2024-02-23T16:38:12.583Z,1.45
2024-02-23T16:40:41.697Z,1.45
2024-02-23T16:43:08.807Z,1.40
2024-02-23T16:45:35.380Z,1.50
2024-02-23T16:48:07.132Z,1.60
2024-02-23T16:50:33.985Z,1.63
2024-02-23T16:53:00.616Z,1.65
2024-02-23T16:55:30.146Z,4.60
2024-02-23T16:57:56.862Z,1.83
2024-02-23T17:00:23.454Z,1.55
2024-02-23T17:02:50.159Z,1.42
2024-02-23T17:05:16.763Z,1.73
2024-02-23T17:07:43.977Z,1.52
2024-02-23T17:10:10.747Z,1.75
2024-02-23T17:12:37.287Z,1.80
2024-02-23T17:15:04.227Z,2.20
2024-02-23T17:17:31.001Z,1.65
2024-02-23T17:19:57.627Z,1.50
2024-02-23T17:22:25.852Z,2.20
2024-02-23T17:24:52.372Z,2.20
2024-02-23T17:27:18.847Z,2.13
2024-02-23T17:29:45.441Z,2.17
2024-02-23T17:32:12.032Z,2.38
2024-02-23T17:34:38.596Z,2.40
2024-02-23T17:37:07.939Z,5.30
2024-02-23T17:39:34.504Z,2.83
2024-02-23T17:42:01.182Z,5.45
2024-02-23T17:44:28.908Z,3.00
2024-02-23T17:46:56.292Z,4.38
2024-02-23T17:49:22.905Z,3.30
2024-02-23T17:51:49.509Z,3.72
2024-02-23T17:54:16.232Z,4.78
2024-02-23T17:56:42.976Z,4.07
2024-02-23T17:59:09.545Z,2.22
2024-02-23T18:01:36.117Z,2.13
2024-02-23T18:04:03.489Z,2.03
2024-02-23T18:06:30.619Z,1.70
2024-02-23T18:08:57.236Z,1.30
2024-02-23T18:11:23.916Z,1.42
2024-02-23T18:13:50.785Z,1.55
2024-02-23T18:16:19.699Z,4.60
2024-02-23T18:18:46.866Z,1.40
2024-02-23T18:21:17.350Z,8.60
2024-02-23T18:23:47.256Z,2.28
2024-02-23T18:26:18.794Z,1.75
2024-02-23T18:28:45.330Z,3.80
2024-02-23T18:31:11.817Z,2.00
2024-02-23T18:33:38.453Z,6.20
2024-02-23T18:36:05.717Z,2.45
2024-02-23T18:38:32.255Z,1.95
2024-02-23T18:41:00.645Z,2.42
2024-02-23T18:43:27.261Z,3.28
2024-02-23T18:45:53.906Z,2.00
2024-02-23T18:48:21.280Z,2.00
2024-02-23T18:50:48.569Z,3.08
2024-02-23T18:53:15.421Z,2.53
2024-02-23T18:55:41.937Z,2.50
2024-02-23T18:58:09.063Z,2.10
2024-02-23T19:00:35.865Z,3.10
2024-02-23T19:03:02.598Z,3.20
2024-02-23T19:05:29.414Z,4.35
2024-02-23T19:07:56.105Z,3.00
2024-02-23T19:10:22.658Z,4.68
2024-02-23T19:12:49.304Z,4.93
2024-02-23T19:15:15.869Z,2.72
2024-02-23T19:17:43.023Z,2.75
2024-02-23T19:20:10.855Z,4.55
2024-02-23T19:22:38.744Z,3.05
2024-02-23T19:25:13.958Z,2.22
2024-02-23T19:27:41.377Z,3.72
2024-02-23T19:30:13.488Z,3.70
2024-02-23T19:32:40.376Z,4.43
2024-02-23T19:35:07.452Z,7.68
2024-02-23T19:37:37.313Z,6.68
2024-02-23T19:40:04.631Z,6.75
2024-02-23T19:42:31.172Z,5.43
2024-02-23T19:44:57.876Z,4.97
2024-02-23T19:47:24.489Z,23.45
2024-02-23T19:49:51.079Z,6.68
2024-02-23T19:52:17.717Z,5.85
2024-02-23T19:54:47.758Z,10.60
2024-02-23T19:57:14.270Z,6.07
2024-02-23T19:59:41.270Z,11.70
2024-02-23T20:02:13.607Z,4.40
2024-02-23T20:04:44.421Z,10.88
2024-02-23T20:07:13.749Z,3.95
2024-02-23T20:09:41.039Z,3.88
2024-02-23T20:12:09.034Z,3.20
2024-02-23T20:14:36.009Z,2.80
2024-02-23T20:17:03.050Z,3.30
2024-02-23T20:19:30.068Z,3.17
2024-02-23T20:21:57.255Z,3.95
2024-02-23T20:24:26.314Z,3.30
2024-02-23T20:26:55.169Z,4.15
2024-02-23T20:29:22.015Z,3.95
2024-02-23T20:31:48.996Z,3.92
2024-02-23T20:34:17.437Z,4.68
2024-02-23T20:39:11.719Z,4.35
2024-02-23T20:41:40.386Z,4.10
2024-02-23T20:44:07.688Z,3.80
2024-02-23T20:46:34.196Z,4.28
2024-02-23T20:49:02.356Z,4.57
2024-02-23T20:51:30.215Z,5.20
2024-02-23T20:53:56.817Z,4.50
2024-02-23T20:56:23.431Z,4.15
2024-02-23T20:58:50.101Z,5.38
2024-02-23T21:01:17.661Z,7.85
2024-02-23T21:03:44.764Z,5.32
2024-02-23T21:06:12.407Z,4.70
2024-02-23T21:08:40.334Z,4.82
2024-02-23T21:11:07.758Z,5.38
2024-02-23T21:13:34.559Z,5.22
2024-02-23T21:16:01.243Z,5.22
2024-02-23T21:18:27.915Z,5.43
2024-02-23T21:20:54.725Z,4.97
2024-02-23T21:23:23.051Z,4.70
2024-02-23T21:25:49.756Z,4.28
2024-02-23T21:28:18.037Z,4.30
2024-02-23T21:30:49.272Z,4.40
2024-02-23T21:33:16.261Z,4.68
2024-02-23T21:35:43.221Z,4.57
2024-02-23T21:38:10.593Z,4.22
2024-02-23T21:40:37.382Z,4.80
2024-02-23T21:43:05.103Z,4.93
2024-02-23T21:45:31.695Z,5.90
2024-02-23T21:47:58.434Z,6.00
2024-02-23T21:50:25.745Z,5.50
2024-02-23T21:52:52.507Z,5.75
2024-02-23T21:55:22.660Z,5.28
2024-02-23T21:57:49.433Z,4.70
2024-02-23T22:00:16.555Z,4.93
2024-02-23T22:02:43.648Z,4.53
2024-02-23T22:05:10.275Z,4.25
2024-02-23T22:07:40.378Z,4.05
2024-02-23T22:10:07.656Z,4.13
2024-02-23T22:12:34.256Z,4.15
2024-02-23T22:15:04.203Z,4.43
2024-02-23T22:17:30.993Z,3.75
2024-02-23T22:19:57.681Z,3.67
2024-02-23T22:22:26.454Z,3.83
2024-02-23T22:24:57.811Z,4.10
2024-02-23T22:27:24.446Z,3.97
2024-02-23T22:29:52.207Z,3.92
2024-02-23T22:32:21.558Z,3.55
2024-02-23T22:34:49.023Z,3.35
2024-02-23T22:37:16.239Z,3.65
2024-02-23T22:39:42.915Z,3.30
2024-02-23T22:42:09.666Z,3.17
2024-02-23T22:44:36.317Z,3.20
2024-02-23T22:47:02.972Z,3.28
2024-02-23T22:49:29.767Z,3.30
2024-02-23T22:51:56.391Z,3.10
2024-02-23T22:54:22.992Z,3.10
2024-02-23T22:56:49.609Z,2.50
2024-02-23T22:59:16.233Z,2.50
2024-02-23T23:01:42.839Z,2.90
2024-02-23T23:04:09.436Z,2.53
2024-02-23T23:06:36.773Z,2.50
2024-02-23T23:09:03.770Z,2.50
2024-02-23T23:11:30.622Z,2.47
2024-02-23T23:13:59.401Z,2.47
2024-02-23T23:16:26.229Z,2.50
2024-02-23T23:18:53.006Z,2.47
2024-02-23T23:21:19.835Z,2.45
2024-02-23T23:23:46.419Z,2.40
2024-02-23T23:26:13.680Z,2.38
2024-02-23T23:28:40.299Z,2.65
2024-02-23T23:31:06.857Z,2.47
2024-02-23T23:33:33.712Z,2.55
2024-02-23T23:36:01.003Z,2.45
2024-02-23T23:38:27.714Z,2.45
2024-02-23T23:40:54.503Z,2.42
2024-02-23T23:43:21.035Z,3.03
2024-02-23T23:45:47.727Z,2.40
2024-02-23T23:48:17.435Z,2.38
2024-02-23T23:50:44.382Z,2.10
2024-02-23T23:53:11.300Z,2.30
2024-02-23T23:55:38.352Z,2.28
2024-02-23T23:58:05.288Z,2.30
